createdAt,value
2023-10-01T00:00:23.812Z,97960.50
2023-10-01T00:02:52.662Z,97956.50
2023-10-01T00:05:23.378Z,97949.66
2023-10-01T00:07:53.018Z,97949.03
2023-10-01T00:10:22.068Z,97950.25
2023-10-01T00:12:50.924Z,97944.78
2023-10-01T00:15:20.099Z,97941.63
2023-10-01T00:17:50.056Z,97946.31
2023-10-01T00:20:23.578Z,97936.25
2023-10-01T00:22:53.492Z,97942.28
2023-10-01T00:25:23.446Z,97944.00
2023-10-01T00:27:50.339Z,97963.69
2023-10-01T00:30:18.091Z,97955.09
2023-10-01T00:32:46.585Z,97956.78
2023-10-01T00:35:14.459Z,97956.19
2023-10-01T00:37:42.553Z,97957.38
2023-10-01T00:40:12.407Z,97949.81
2023-10-01T00:42:41.620Z,97949.81
2023-10-01T00:45:12.975Z,97942.53
2023-10-01T00:47:41.653Z,97952.53
2023-10-01T00:50:12.636Z,97956.00
2023-10-01T00:52:41.631Z,97951.09
2023-10-01T00:55:11.482Z,97944.31
2023-10-01T00:57:40.726Z,97944.19
2023-10-01T01:00:14.729Z,97945.47
2023-10-01T01:02:47.619Z,97947.75
2023-10-01T01:05:24.839Z,97940.38
2023-10-01T01:07:52.751Z,97938.38
2023-10-01T01:10:21.412Z,97934.00
2023-10-01T01:12:55.342Z,97940.09
2023-10-01T01:15:23.279Z,97941.16
2023-10-01T01:17:52.339Z,97939.44
2023-10-01T01:20:21.155Z,97939.06
2023-10-01T01:22:53.660Z,97936.31
2023-10-01T01:25:22.610Z,97935.88
2023-10-01T01:27:52.011Z,97941.41
2023-10-01T01:30:20.276Z,97931.63
2023-10-01T01:32:50.961Z,97931.84
2023-10-01T01:35:28.364Z,97925.88
2023-10-01T01:37:59.800Z,97923.59
2023-10-01T01:40:33.139Z,97922.22
2023-10-01T01:43:05.738Z,97925.56
2023-10-01T01:45:34.522Z,97917.44
2023-10-01T01:48:02.757Z,97921.81
2023-10-01T01:50:33.139Z,97920.44
2023-10-01T01:53:05.265Z,97931.69
2023-10-01T01:55:35.909Z,97925.28
2023-10-01T01:58:10.199Z,97923.88
2023-10-01T02:00:39.859Z,97917.81
2023-10-01T02:03:15.879Z,97918.22
2023-10-01T02:05:43.955Z,97915.03
2023-10-01T02:08:24.984Z,97916.84
2023-10-01T02:10:53.854Z,97916.50
2023-10-01T02:13:25.737Z,97912.47
2023-10-01T02:15:55.149Z,97903.94
2023-10-01T02:18:23.001Z,97908.25
2023-10-01T02:20:53.204Z,97911.44
2023-10-01T02:23:27.358Z,97914.09
2023-10-01T02:25:54.965Z,97908.88
2023-10-01T02:28:23.632Z,97915.91
2023-10-01T02:30:58.082Z,97911.66
2023-10-01T02:33:26.612Z,97911.66
2023-10-01T02:35:59.407Z,97910.91
2023-10-01T02:38:44.656Z,97902.59
2023-10-01T02:41:11.393Z,97907.16
2023-10-01T02:43:43.184Z,97898.63
2023-10-01T02:46:13.170Z,97892.44
2023-10-01T02:48:41.484Z,97892.44
2023-10-01T02:51:33.385Z,97886.25
2023-10-01T02:54:06.823Z,97883.03
2023-10-01T02:56:35.821Z,97891.28
2023-10-01T02:59:09.634Z,97886.25
2023-10-01T03:01:39.839Z,97890.59
2023-10-01T03:04:11.858Z,97892.44
2023-10-01T03:06:44.230Z,97890.75
2023-10-01T03:09:23.430Z,97884.44
2023-10-01T03:11:54.565Z,97882.59
2023-10-01T03:14:27.505Z,97887.53
2023-10-01T03:16:55.198Z,97884.63
2023-10-01T03:19:27.499Z,97885.63
2023-10-01T03:22:13.674Z,97893.94
2023-10-01T03:24:46.232Z,97886.25
2023-10-01T03:27:21.671Z,97888.72
2023-10-01T03:29:55.060Z,97885.22
2023-10-01T03:32:33.987Z,97876.22
2023-10-01T03:35:08.949Z,97886.16
2023-10-01T03:37:40.404Z,97880.28
2023-10-01T03:40:16.043Z,97887.44
2023-10-01T03:42:51.520Z,97888.50
2023-10-01T03:45:42.325Z,97883.16
2023-10-01T03:48:09.462Z,97887.13
2023-10-01T03:50:46.826Z,97879.03
2023-10-01T03:53:19.305Z,97878.28
2023-10-01T03:55:56.001Z,97877.94
2023-10-01T03:58:28.789Z,97881.47
2023-10-01T04:00:56.485Z,97889.25
2023-10-01T04:03:24.127Z,97887.44
2023-10-01T04:05:58.272Z,97886.16
2023-10-01T04:08:26.269Z,97886.59
2023-10-01T04:11:00.258Z,97887.66
2023-10-01T04:13:29.303Z,97881.25
2023-10-01T04:16:06.903Z,97883.06
2023-10-01T04:18:35.273Z,97880.19
2023-10-01T04:21:26.529Z,97885.94
2023-10-01T04:23:55.951Z,97880.38
2023-10-01T04:26:26.493Z,97885.19
2023-10-01T04:28:56.140Z,97882.53
2023-10-01T04:31:43.652Z,97879.00
2023-10-01T04:34:12.464Z,97877.41
2023-10-01T04:36:40.567Z,97872.72
2023-10-01T04:39:08.974Z,97865.34
2023-10-01T04:41:39.018Z,97864.84
2023-10-01T04:44:09.546Z,97864.72
2023-10-01T04:46:38.992Z,97854.34
2023-10-01T04:49:35.919Z,97853.72
2023-10-01T04:52:12.098Z,97853.19
2023-10-01T04:54:41.539Z,97854.13
2023-10-01T04:57:10.943Z,97858.31
2023-10-01T04:59:57.663Z,97858.53
2023-10-01T05:02:25.983Z,97867.91
2023-10-01T05:05:10.232Z,97873.78
2023-10-01T05:07:38.915Z,97877.53
2023-10-01T05:10:09.028Z,97896.28
2023-10-01T05:12:44.995Z,97892.75
2023-10-01T05:15:22.890Z,97890.53
2023-10-01T05:17:50.767Z,97895.09
2023-10-01T05:20:18.584Z,97893.78
2023-10-01T05:22:52.120Z,97893.78
2023-10-01T05:25:20.726Z,97907.34
2023-10-01T05:27:55.033Z,97897.75
2023-10-01T05:30:37.741Z,97894.25
2023-10-01T05:33:07.307Z,97893.94
2023-10-01T05:35:42.077Z,97894.69
2023-10-01T05:38:11.606Z,97901.28
2023-10-01T05:40:41.590Z,97905.75
2023-10-01T05:43:16.779Z,97904.81
2023-10-01T05:45:52.111Z,97911.09
2023-10-01T05:48:21.249Z,97919.09
2023-10-01T05:50:49.111Z,97917.28
2023-10-01T05:53:18.436Z,97918.25
2023-10-01T05:55:46.540Z,97926.13
2023-10-01T05:58:15.966Z,97927.88
2023-10-01T06:00:46.518Z,97926.47
2023-10-01T06:03:15.007Z,97933.22
2023-10-01T06:05:47.917Z,97929.19
2023-10-01T06:08:16.355Z,97934.31
2023-10-01T06:10:57.739Z,97932.38
2023-10-01T06:13:26.775Z,97933.31
2023-10-01T06:15:57.415Z,97926.72
2023-10-01T06:18:25.867Z,97925.97
2023-10-01T06:20:54.755Z,97929.84
2023-10-01T06:23:22.967Z,97934.97
2023-10-01T06:25:55.057Z,97928.75
2023-10-01T06:28:24.609Z,97925.22
2023-10-01T06:30:53.935Z,97918.50
2023-10-01T06:33:27.503Z,97923.00
2023-10-01T06:36:12.999Z,97927.91
2023-10-01T06:38:40.586Z,97938.16
2023-10-01T06:41:14.391Z,97923.00
2023-10-01T06:43:49.587Z,97931.84
2023-10-01T06:46:23.431Z,97933.38
2023-10-01T06:48:51.616Z,97932.16
2023-10-01T06:51:22.338Z,97932.16
2023-10-01T06:53:54.927Z,97938.81
2023-10-01T06:56:22.742Z,97942.44
2023-10-01T06:59:15.110Z,97937.75
2023-10-01T07:01:48.341Z,97933.88
2023-10-01T07:04:17.120Z,97941.47
2023-10-01T07:06:45.688Z,97943.72
2023-10-01T07:09:35.879Z,97947.53
2023-10-01T07:12:04.288Z,97947.19
2023-10-01T07:14:40.108Z,97946.00
2023-10-01T07:17:10.667Z,97939.16
2023-10-01T07:19:39.346Z,97942.97
2023-10-01T07:22:08.607Z,97947.88
2023-10-01T07:24:36.502Z,97949.22
2023-10-01T07:27:07.262Z,97947.72
2023-10-01T07:29:35.957Z,97949.94
2023-10-01T07:32:05.814Z,97957.16
2023-10-01T07:34:36.524Z,97957.44
2023-10-01T07:37:05.667Z,97963.94
2023-10-01T07:39:35.811Z,97960.47
2023-10-01T07:42:05.521Z,97968.00
2023-10-01T07:44:34.550Z,97960.34
2023-10-01T07:47:04.263Z,97971.09
2023-10-01T07:49:48.188Z,97968.81
2023-10-01T07:52:21.089Z,97967.81
2023-10-01T07:54:49.688Z,97969.63
2023-10-01T07:57:28.233Z,97969.53
2023-10-01T07:59:56.403Z,97970.28
2023-10-01T08:02:25.652Z,97979.66
2023-10-01T08:04:58.825Z,97974.91
2023-10-01T08:07:43.239Z,97977.97
2023-10-01T08:10:19.664Z,97977.22
2023-10-01T08:13:05.397Z,97973.69
2023-10-01T08:15:39.429Z,97973.16
2023-10-01T08:18:36.446Z,97968.59
2023-10-01T08:21:05.539Z,97968.00
2023-10-01T08:23:37.562Z,97976.47
2023-10-01T08:26:24.734Z,97977.28
2023-10-01T08:28:59.661Z,97980.06
2023-10-01T08:31:46.937Z,97973.03
2023-10-01T08:34:28.745Z,97978.72
2023-10-01T08:36:56.451Z,97971.69
2023-10-01T08:39:39.922Z,97971.75
2023-10-01T08:42:11.086Z,97968.59
2023-10-01T08:44:46.500Z,97976.63
2023-10-01T08:47:28.622Z,97966.88
2023-10-01T08:49:58.152Z,97965.19
2023-10-01T08:52:31.712Z,97957.19
2023-10-01T08:55:00.866Z,97967.56
2023-10-01T08:57:46.286Z,97960.06
2023-10-01T09:00:21.485Z,97960.78
2023-10-01T09:02:52.929Z,97963.78
2023-10-01T09:05:25.648Z,97969.19
2023-10-01T09:08:14.589Z,97961.53
2023-10-01T09:10:54.679Z,97967.94
2023-10-01T09:13:27.742Z,97955.88
2023-10-01T09:15:58.334Z,97964.25
2023-10-01T09:18:26.902Z,97958.59
2023-10-01T09:21:09.791Z,97966.09
2023-10-01T09:24:13.047Z,97958.16
2023-10-01T09:26:43.642Z,97962.78
2023-10-01T09:29:22.573Z,97967.28
2023-10-01T09:31:58.934Z,97965.44
2023-10-01T09:34:35.415Z,97962.00
2023-10-01T09:37:04.764Z,97959.69
2023-10-01T09:39:37.574Z,97958.38
2023-10-01T09:42:23.829Z,97954.25
2023-10-01T09:44:53.452Z,97949.38
2023-10-01T09:47:24.490Z,97942.47
2023-10-01T09:49:53.159Z,97950.50
2023-10-01T09:52:31.905Z,97943.28
2023-10-01T09:55:04.150Z,97939.16
2023-10-01T09:57:35.988Z,97943.91
2023-10-01T10:00:22.990Z,97936.28
2023-10-01T10:02:54.918Z,97930.47
2023-10-01T10:05:29.944Z,97930.03
2023-10-01T10:08:15.085Z,97928.44
2023-10-01T10:10:49.727Z,97921.72
2023-10-01T10:13:37.846Z,97920.38
2023-10-01T10:16:27.967Z,97923.84
2023-10-01T10:19:06.256Z,97918.19
2023-10-01T10:22:05.800Z,97907.84
2023-10-01T10:24:34.128Z,97906.47
2023-10-01T10:27:02.661Z,97906.03
2023-10-01T10:29:47.596Z,97903.03
2023-10-01T10:32:16.928Z,97903.41
2023-10-01T10:35:03.568Z,97899.09
2023-10-01T10:37:49.477Z,97900.34
2023-10-01T10:40:33.986Z,97889.53
2023-10-01T10:43:19.488Z,97886.72
2023-10-01T10:45:59.785Z,97883.41
2023-10-01T10:48:42.452Z,97882.84
2023-10-01T10:51:22.795Z,97885.69
2023-10-01T10:53:53.278Z,97871.53
2023-10-01T10:56:36.235Z,97882.28
2023-10-01T10:59:05.328Z,97886.69
2023-10-01T11:01:44.738Z,97889.25
2023-10-01T11:04:13.974Z,97887.84
2023-10-01T11:06:43.618Z,97882.59
2023-10-01T11:09:26.241Z,97885.38
2023-10-01T11:11:54.518Z,97881.25
2023-10-01T11:14:22.549Z,97883.28
2023-10-01T11:16:51.626Z,97880.06
2023-10-01T11:19:23.004Z,97871.81
2023-10-01T11:22:00.500Z,97870.03
2023-10-01T11:24:32.902Z,97871.03
2023-10-01T11:27:16.356Z,97866.59
2023-10-01T11:29:44.529Z,97865.50
2023-10-01T11:32:17.896Z,97857.75
2023-10-01T11:34:46.789Z,97858.19
2023-10-01T11:37:20.379Z,97862.34
2023-10-01T11:39:54.358Z,97851.66
2023-10-01T11:42:27.599Z,97850.34
2023-10-01T11:44:55.188Z,97843.09
2023-10-01T11:47:35.200Z,97841.34
2023-10-01T11:50:08.745Z,97836.97
2023-10-01T11:52:38.303Z,97833.06
2023-10-01T11:55:19.899Z,97832.00
2023-10-01T11:57:53.650Z,97827.53
2023-10-01T12:00:41.529Z,97817.91
2023-10-01T12:03:12.380Z,97816.06
2023-10-01T12:05:43.125Z,97818.59
2023-10-01T12:08:19.326Z,97804.28
2023-10-01T12:10:52.295Z,97815.22
2023-10-01T12:13:22.551Z,97806.94
2023-10-01T12:15:53.373Z,97807.72
2023-10-01T12:18:21.163Z,97801.78
2023-10-01T12:20:54.840Z,97801.97
2023-10-01T12:23:27.314Z,97793.66
2023-10-01T12:26:14.965Z,97793.66
2023-10-01T12:29:02.953Z,97796.19
2023-10-01T12:31:30.637Z,97799.13
2023-10-01T12:34:00.711Z,97800.25
2023-10-01T12:36:34.205Z,97796.91
2023-10-01T12:39:18.020Z,97794.84
2023-10-01T12:42:01.182Z,97788.66
2023-10-01T12:44:29.485Z,97792.75
2023-10-01T12:47:01.974Z,97777.47
2023-10-01T12:49:33.302Z,97776.25
2023-10-01T12:52:01.059Z,97779.16
2023-10-01T12:54:29.396Z,97775.66
2023-10-01T12:57:10.800Z,97777.75
2023-10-01T12:59:40.383Z,97767.56
2023-10-01T13:02:23.782Z,97770.72
2023-10-01T13:04:52.229Z,97773.06
2023-10-01T13:07:36.531Z,97765.75
2023-10-01T13:10:07.361Z,97765.78
2023-10-01T13:12:40.874Z,97761.09
2023-10-01T13:15:18.407Z,97754.38
2023-10-01T13:17:46.468Z,97752.56
2023-10-01T13:20:20.113Z,97754.03
2023-10-01T13:22:49.645Z,97744.09
2023-10-01T13:25:21.008Z,97759.53
2023-10-01T13:27:48.898Z,97749.03
2023-10-01T13:30:21.739Z,97752.88
2023-10-01T13:33:11.500Z,97752.69
2023-10-01T13:35:51.120Z,97748.50
2023-10-01T13:38:28.109Z,97750.94
2023-10-01T13:41:15.314Z,97752.13
2023-10-01T13:44:00.928Z,97752.97
2023-10-01T13:46:46.377Z,97750.63
2023-10-01T13:49:31.772Z,97742.81
2023-10-01T13:52:17.084Z,97739.69
2023-10-01T13:55:13.529Z,97744.53
2023-10-01T13:58:00.200Z,97733.59
2023-10-01T14:00:45.217Z,97734.06
2023-10-01T14:03:30.468Z,97725.69
2023-10-01T14:06:15.222Z,97717.19
2023-10-01T14:08:45.542Z,97712.88
2023-10-01T14:11:13.901Z,97719.56
2023-10-01T14:13:46.595Z,97712.63
2023-10-01T14:16:19.064Z,97718.50
2023-10-01T14:18:55.955Z,97722.63
2023-10-01T14:21:24.692Z,97714.63
2023-10-01T14:23:53.368Z,97712.50
2023-10-01T14:26:28.023Z,97711.81
2023-10-01T14:28:57.323Z,97714.47
2023-10-01T14:31:38.873Z,97703.00
2023-10-01T14:34:06.996Z,97712.44
2023-10-01T14:36:34.733Z,97713.31
2023-10-01T14:39:04.597Z,97709.66
2023-10-01T14:41:32.570Z,97711.06
2023-10-01T14:44:02.746Z,97703.47
2023-10-01T14:46:33.727Z,97700.63
2023-10-01T14:49:05.925Z,97700.59
2023-10-01T14:51:33.774Z,97689.34
2023-10-01T14:54:01.742Z,97692.31
2023-10-01T14:56:32.191Z,97683.94
2023-10-01T14:59:01.360Z,97680.69
2023-10-01T15:01:30.045Z,97680.41
2023-10-01T15:03:57.779Z,97681.56
2023-10-01T15:06:25.444Z,97687.91
2023-10-01T15:09:01.150Z,97683.59
2023-10-01T15:11:31.733Z,97683.59
2023-10-01T15:14:13.044Z,97681.31
2023-10-01T15:16:49.525Z,97674.97
2023-10-01T15:19:31.629Z,97681.34
2023-10-01T15:22:04.294Z,97671.47
2023-10-01T15:24:31.882Z,97679.72
2023-10-01T15:27:00.240Z,97677.03
2023-10-01T15:29:32.222Z,97671.91
2023-10-01T15:31:59.892Z,97672.13
2023-10-01T15:34:30.188Z,97664.16
2023-10-01T15:37:03.831Z,97670.91
2023-10-01T15:39:40.587Z,97668.19
2023-10-01T15:42:12.609Z,97675.53
2023-10-01T15:44:45.835Z,97666.06
2023-10-01T15:47:14.261Z,97662.38
2023-10-01T15:49:41.944Z,97666.59
2023-10-01T15:52:13.873Z,97663.41
2023-10-01T15:54:41.488Z,97669.03
2023-10-01T15:57:10.103Z,97674.66
2023-10-01T15:59:37.708Z,97664.44
2023-10-01T16:02:19.948Z,97665.53
2023-10-01T16:04:48.173Z,97670.84
2023-10-01T16:07:19.022Z,97672.81
2023-10-01T16:09:48.478Z,97673.34
2023-10-01T16:12:16.365Z,97664.25
2023-10-01T16:14:59.034Z,97669.19
2023-10-01T16:17:33.490Z,97663.63
2023-10-01T16:20:01.583Z,97669.97
2023-10-01T16:22:30.048Z,97669.47
2023-10-01T16:24:58.358Z,97666.72
2023-10-01T16:27:27.812Z,97667.28
2023-10-01T16:30:18.053Z,97670.75
2023-10-01T16:32:49.353Z,97678.38
2023-10-01T16:35:20.976Z,97673.03
2023-10-01T16:37:52.278Z,97680.06
2023-10-01T16:40:21.269Z,97675.47
2023-10-01T16:42:52.856Z,97683.38
2023-10-01T16:45:22.429Z,97672.09
2023-10-01T16:47:53.464Z,97674.34
2023-10-01T16:50:37.512Z,97671.25
2023-10-01T16:53:05.253Z,97683.94
2023-10-01T16:55:36.257Z,97677.72
2023-10-01T16:58:13.054Z,97680.31
2023-10-01T17:00:41.565Z,97687.75
2023-10-01T17:03:12.163Z,97680.78
2023-10-01T17:05:41.937Z,97682.47
2023-10-01T17:08:16.182Z,97676.75
2023-10-01T17:10:44.462Z,97682.72
2023-10-01T17:13:15.523Z,97680.59
2023-10-01T17:15:44.896Z,97686.78
2023-10-01T17:18:18.566Z,97693.69
2023-10-01T17:20:51.615Z,97692.41
2023-10-01T17:23:20.006Z,97685.88
2023-10-01T17:25:48.744Z,97694.59
2023-10-01T17:28:28.360Z,97695.47
2023-10-01T17:30:57.300Z,97692.59
2023-10-01T17:33:31.316Z,97703.66
2023-10-01T17:36:05.761Z,97705.38
2023-10-01T17:38:34.807Z,97698.25
2023-10-01T17:41:02.445Z,97699.56
2023-10-01T17:43:32.077Z,97706.56
2023-10-01T17:46:04.164Z,97706.22
2023-10-01T17:48:36.862Z,97707.41
2023-10-01T17:51:04.539Z,97708.97
2023-10-01T17:53:33.887Z,97712.16
2023-10-01T17:56:04.776Z,97709.97
2023-10-01T17:58:34.359Z,97715.94
2023-10-01T18:01:02.065Z,97709.00
2023-10-01T18:03:32.018Z,97714.75
2023-10-01T18:06:06.327Z,97718.47
2023-10-01T18:08:37.225Z,97721.53
2023-10-01T18:11:11.946Z,97715.00
2023-10-01T18:13:41.236Z,97713.00
2023-10-01T18:16:09.823Z,97716.53
2023-10-01T18:18:37.478Z,97712.97
2023-10-01T18:21:12.957Z,97711.75
2023-10-01T18:23:41.541Z,97706.69
2023-10-01T18:26:10.011Z,97703.56
2023-10-01T18:28:37.795Z,97705.06
2023-10-01T18:31:09.346Z,97707.09
2023-10-01T18:33:37.730Z,97710.28
2023-10-01T18:36:19.722Z,97709.31
2023-10-01T18:38:49.708Z,97719.41
2023-10-01T18:41:21.738Z,97712.69
2023-10-01T18:43:49.883Z,97713.50
2023-10-01T18:46:19.514Z,97721.03
2023-10-01T18:48:47.141Z,97722.28
2023-10-01T18:51:16.040Z,97724.94
2023-10-01T18:53:44.301Z,97722.72
2023-10-01T18:56:12.504Z,97718.06
2023-10-01T18:58:41.014Z,97724.63
2023-10-01T19:01:11.796Z,97713.69
2023-10-01T19:03:40.743Z,97715.97
2023-10-01T19:06:08.411Z,97731.94
2023-10-01T19:08:37.377Z,97719.56
2023-10-01T19:11:04.993Z,97722.56
2023-10-01T19:13:33.420Z,97720.03
2023-10-01T19:16:02.158Z,97727.31
2023-10-01T19:18:30.968Z,97727.78
2023-10-01T19:21:00.215Z,97727.47
2023-10-01T19:23:33.096Z,97724.28
2023-10-01T19:26:04.754Z,97725.59
2023-10-01T19:28:33.145Z,97718.28
2023-10-01T19:31:01.172Z,97720.34
2023-10-01T19:33:29.070Z,97720.81
2023-10-01T19:35:59.665Z,97726.38
2023-10-01T19:38:27.215Z,97726.38
2023-10-01T19:40:55.036Z,97718.59
2023-10-01T19:43:27.532Z,97715.66
2023-10-01T19:45:55.854Z,97719.53
2023-10-01T19:48:23.676Z,97711.22
2023-10-01T19:50:53.131Z,97724.34
2023-10-01T19:53:23.742Z,97726.78
2023-10-01T19:55:55.763Z,97724.28
2023-10-01T19:58:32.151Z,97727.72
2023-10-01T20:01:00.196Z,97726.19
2023-10-01T20:03:29.351Z,97720.97
2023-10-01T20:05:57.243Z,97727.94
2023-10-01T20:08:29.092Z,97728.09
2023-10-01T20:10:57.525Z,97730.69
2023-10-01T20:13:29.883Z,97733.38
2023-10-01T20:16:01.176Z,97736.22
2023-10-01T20:18:30.413Z,97740.03
2023-10-01T20:21:00.726Z,97735.78
2023-10-01T20:23:28.338Z,97733.25
2023-10-01T20:25:56.961Z,97731.16
2023-10-01T20:28:29.702Z,97727.34
2023-10-01T20:31:00.320Z,97725.22
2023-10-01T20:33:28.540Z,97726.78
2023-10-01T20:35:56.996Z,97731.63
2023-10-01T20:38:25.296Z,97728.38
2023-10-01T20:40:53.460Z,97724.97
2023-10-01T20:43:25.585Z,97724.84
2023-10-01T20:45:55.600Z,97727.13
2023-10-01T20:48:44.024Z,97728.38
2023-10-01T20:51:12.944Z,97727.97
2023-10-01T20:53:41.441Z,97732.91
2023-10-01T20:56:10.929Z,97726.84
2023-10-01T20:58:42.194Z,97728.09
2023-10-01T21:01:14.977Z,97729.66
2023-10-01T21:03:48.591Z,97731.38
2023-10-01T21:06:30.375Z,97725.81
2023-10-01T21:08:58.062Z,97723.41
2023-10-01T21:11:27.729Z,97725.38
2023-10-01T21:13:58.391Z,97722.41
2023-10-01T21:16:27.785Z,97728.22
2023-10-01T21:18:56.019Z,97728.91
2023-10-01T21:21:27.789Z,97724.66
2023-10-01T21:23:55.571Z,97726.91
2023-10-01T21:26:26.022Z,97722.25
2023-10-01T21:28:57.790Z,97722.25
2023-10-01T21:31:27.013Z,97724.22
2023-10-01T21:34:01.795Z,97724.78
2023-10-01T21:36:30.020Z,97719.97
2023-10-01T21:39:00.488Z,97719.13
2023-10-01T21:41:35.555Z,97706.94
2023-10-01T21:44:06.771Z,97718.94
2023-10-01T21:46:40.316Z,97712.56
2023-10-01T21:49:10.381Z,97716.69
2023-10-01T21:51:42.773Z,97705.94
2023-10-01T21:54:15.740Z,97713.25
2023-10-01T21:56:47.343Z,97704.50
2023-10-01T21:59:15.549Z,97705.75
2023-10-01T22:01:46.308Z,97700.66
2023-10-01T22:04:15.363Z,97708.16
2023-10-01T22:06:51.146Z,97708.56
2023-10-01T22:09:22.957Z,97712.22
2023-10-01T22:11:53.117Z,97704.28
2023-10-01T22:14:21.481Z,97700.31
2023-10-01T22:16:53.915Z,97689.03
2023-10-01T22:19:22.722Z,97691.84
2023-10-01T22:21:51.320Z,97687.84
2023-10-01T22:24:21.003Z,97690.66
2023-10-01T22:26:52.004Z,97684.13
2023-10-01T22:29:21.959Z,97681.91
2023-10-01T22:31:53.405Z,97675.13
2023-10-01T22:34:26.143Z,97681.72
2023-10-01T22:36:56.897Z,97678.91
2023-10-01T22:39:37.001Z,97679.56
2023-10-01T22:42:22.683Z,97680.13
2023-10-01T22:44:55.436Z,97679.69
2023-10-01T22:47:24.598Z,97679.25
2023-10-01T22:49:56.953Z,97677.22
2023-10-01T22:52:31.449Z,97678.47
2023-10-01T22:55:00.015Z,97677.06
2023-10-01T22:57:41.878Z,97677.44
2023-10-01T23:00:10.707Z,97681.41
2023-10-01T23:02:48.849Z,97672.91
2023-10-01T23:05:18.259Z,97676.56
2023-10-01T23:07:46.172Z,97673.41
2023-10-01T23:10:25.465Z,97668.19
2023-10-01T23:13:08.234Z,97670.88
2023-10-01T23:15:40.553Z,97669.16
2023-10-01T23:18:10.352Z,97672.94
2023-10-01T23:20:50.771Z,97668.00
2023-10-01T23:23:21.744Z,97662.63
2023-10-01T23:26:04.880Z,97656.66
2023-10-01T23:28:33.319Z,97666.66
2023-10-01T23:31:10.922Z,97661.44
2023-10-01T23:33:40.192Z,97663.09
2023-10-01T23:36:11.688Z,97661.69
2023-10-01T23:38:55.997Z,97660.84
2023-10-01T23:41:49.213Z,97662.31
2023-10-01T23:44:24.770Z,97661.69
2023-10-01T23:46:54.759Z,97661.09
2023-10-01T23:49:26.517Z,97664.53
2023-10-01T23:52:03.698Z,97656.88
2023-10-01T23:54:37.477Z,97656.63
2023-10-01T23:57:10.251Z,97662.38
2023-10-01T23:59:38.225Z,97664.19
